sensor_id;sensor_type;location;lat;lon;timestamp;pressure;altitude;pressure_sealevel;temperature;humidity
31346;BME280;21711;49.708;18.568;2022-10-16T00:01:41;97538.72;;;13.11;100.00
31346;BME280;21711;49.708;18.568;2022-10-16T00:04:09;97545.06;;;13.39;100.00
31346;BME280;21711;49.708;18.568;2022-10-16T00:06:37;97550.47;;;13.53;100.00
31346;BME280;21711;49.708;18.568;2022-10-16T00:09:05;97552.72;;;13.65;100.00
31346;BME280;21711;49.708;18.568;2022-10-16T00:11:35;97555.41;;;13.85;100.00
31346;BME280;21711;49.708;18.568;2022-10-16T00:14:11;97559.66;;;14.05;100.00
31346;BME280;21711;49.708;18.568;2022-10-16T00:16:39;97560.69;;;14.09;100.00
31346;BME280;21711;49.708;18.568;2022-10-16T00:19:07;97561.88;;;14.17;100.00
31346;BME280;21711;49.708;18.568;2022-10-16T00:21:34;97548.34;;;14.32;100.00
31346;BME280;21711;49.708;18.568;2022-10-16T00:24:05;97556.81;;;14.34;100.00
31346;BME280;21711;49.708;18.568;2022-10-16T00:26:34;97559.63;;;14.43;100.00
31346;BME280;21711;49.708;18.568;2022-10-16T00:29:03;97568.00;;;14.51;100.00
31346;BME280;21711;49.708;18.568;2022-10-16T00:31:31;97569.09;;;14.50;100.00
31346;BME280;21711;49.708;18.568;2022-10-16T00:33:59;97570.19;;;14.49;100.00
31346;BME280;21711;49.708;18.568;2022-10-16T00:36:27;97566.72;;;14.48;100.00
31346;BME280;21711;49.708;18.568;2022-10-16T00:38:56;97576.88;;;14.46;100.00
31346;BME280;21711;49.708;18.568;2022-10-16T00:41:32;97586.00;;;14.59;100.00
31346;BME280;21711;49.708;18.568;2022-10-16T00:44:03;97577.28;;;14.53;100.00
31346;BME280;21711;49.708;18.568;2022-10-16T00:46:50;97570.22;;;14.63;100.00
31346;BME280;21711;49.708;18.568;2022-10-16T00:49:19;97566.34;;;14.55;100.00
31346;BME280;21711;49.708;18.568;2022-10-16T00:51:52;97569.59;;;14.52;100.00
31346;BME280;21711;49.708;18.568;2022-10-16T00:54:30;97562.88;;;14.40;100.00
31346;BME280;21711;49.708;18.568;2022-10-16T00:57:05;97570.28;;;14.43;100.00
31346;BME280;21711;49.708;18.568;2022-10-16T00:59:43;97564.28;;;14.52;100.00
31346;BME280;21711;49.708;18.568;2022-10-16T01:02:14;97572.84;;;14.49;100.00
31346;BME280;21711;49.708;18.568;2022-10-16T01:04:48;97569.53;;;14.57;100.00
31346;BME280;21711;49.708;18.568;2022-10-16T01:10:40;97570.84;;;14.40;100.00
31346;BME280;21711;49.708;18.568;2022-10-16T01:13:18;97563.03;;;14.30;100.00
31346;BME280;21711;49.708;18.568;2022-10-16T01:16:22;97560.66;;;14.28;100.00
31346;BME280;21711;49.708;18.568;2022-10-16T01:19:12;97562.19;;;14.15;100.00
31346;BME280;21711;49.708;18.568;2022-10-16T01:21:44;97562.25;;;14.10;100.00
31346;BME280;21711;49.708;18.568;2022-10-16T01:24:41;97555.84;;;13.92;100.00
31346;BME280;21711;49.708;18.568;2022-10-16T01:30:04;97558.22;;;13.93;100.00
31346;BME280;21711;49.708;18.568;2022-10-16T01:35:35;97563.13;;;13.37;100.00
31346;BME280;21711;49.708;18.568;2022-10-16T01:38:10;97557.56;;;13.14;100.00
31346;BME280;21711;49.708;18.568;2022-10-16T01:40:44;97559.00;;;13.01;100.00
31346;BME280;21711;49.708;18.568;2022-10-16T01:43:52;97572.19;;;12.82;100.00
31346;BME280;21711;49.708;18.568;2022-10-16T01:46:10;97565.38;;;12.71;100.00
31346;BME280;21711;49.708;18.568;2022-10-16T01:48:40;97569.19;;;12.59;100.00
31346;BME280;21711;49.708;18.568;2022-10-16T01:51:12;97574.09;;;12.42;100.00
31346;BME280;21711;49.708;18.568;2022-10-16T01:53:43;97568.59;;;12.33;100.00
31346;BME280;21711;49.708;18.568;2022-10-16T01:56:14;97565.19;;;12.27;100.00
31346;BME280;21711;49.708;18.568;2022-10-16T01:58:56;97573.44;;;12.20;100.00
31346;BME280;21711;49.708;18.568;2022-10-16T02:01:27;97572.47;;;12.06;100.00
31346;BME280;21711;49.708;18.568;2022-10-16T02:03:58;97581.00;;;11.92;100.00
31346;BME280;21711;49.708;18.568;2022-10-16T02:06:28;97577.66;;;11.76;100.00
31346;BME280;21711;49.708;18.568;2022-10-16T02:08:56;97580.31;;;11.66;100.00
31346;BME280;21711;49.708;18.568;2022-10-16T02:11:24;97573.22;;;11.56;100.00
31346;BME280;21711;49.708;18.568;2022-10-16T02:14:00;97583.84;;;11.51;100.00
31346;BME280;21711;49.708;18.568;2022-10-16T02:16:45;97585.44;;;11.47;100.00
31346;BME280;21711;49.708;18.568;2022-10-16T02:19:14;97586.50;;;11.40;100.00
31346;BME280;21711;49.708;18.568;2022-10-16T02:22:00;97590.25;;;11.34;100.00
31346;BME280;21711;49.708;18.568;2022-10-16T02:33:01;97602.22;;;11.16;100.00
31346;BME280;21711;49.708;18.568;2022-10-16T02:35:30;97596.63;;;11.23;100.00
31346;BME280;21711;49.708;18.568;2022-10-16T02:37:58;97609.88;;;11.23;100.00
31346;BME280;21711;49.708;18.568;2022-10-16T02:40:26;97602.19;;;11.21;100.00
31346;BME280;21711;49.708;18.568;2022-10-16T02:42:55;97601.97;;;11.12;100.00
31346;BME280;21711;49.708;18.568;2022-10-16T02:45:24;97603.56;;;11.03;100.00
31346;BME280;21711;49.708;18.568;2022-10-16T02:47:52;97602.75;;;10.97;100.00
31346;BME280;21711;49.708;18.568;2022-10-16T02:50:19;97602.75;;;11.08;100.00
31346;BME280;21711;49.708;18.568;2022-10-16T02:52:46;97597.19;;;11.04;100.00
31346;BME280;21711;49.708;18.568;2022-10-16T02:55:14;97605.91;;;11.04;100.00
31346;BME280;21711;49.708;18.568;2022-10-16T02:57:41;97601.69;;;10.98;100.00
31346;BME280;21711;49.708;18.568;2022-10-16T03:00:11;97601.97;;;10.91;100.00
31346;BME280;21711;49.708;18.568;2022-10-16T03:02:40;97596.41;;;10.88;100.00
31346;BME280;21711;49.708;18.568;2022-10-16T03:05:09;97600.13;;;10.87;100.00
31346;BME280;21711;49.708;18.568;2022-10-16T03:07:36;97600.91;;;10.87;100.00
31346;BME280;21711;49.708;18.568;2022-10-16T03:10:04;97599.56;;;10.90;100.00
31346;BME280;21711;49.708;18.568;2022-10-16T03:12:32;97594.84;;;10.87;100.00
31346;BME280;21711;49.708;18.568;2022-10-16T03:14:59;97596.44;;;10.83;100.00
31346;BME280;21711;49.708;18.568;2022-10-16T03:17:26;97604.38;;;10.83;100.00
31346;BME280;21711;49.708;18.568;2022-10-16T03:19:54;97604.09;;;10.89;100.00
31346;BME280;21711;49.708;18.568;2022-10-16T03:22:21;97604.34;;;10.93;100.00
31346;BME280;21711;49.708;18.568;2022-10-16T03:24:48;97606.72;;;10.95;100.00
31346;BME280;21711;49.708;18.568;2022-10-16T03:27:16;97604.34;;;10.93;100.00
31346;BME280;21711;49.708;18.568;2022-10-16T03:29:44;97610.44;;;10.99;100.00
31346;BME280;21711;49.708;18.568;2022-10-16T03:32:11;97611.50;;;10.98;100.00
31346;BME280;21711;49.708;18.568;2022-10-16T03:34:38;97614.41;;;10.96;100.00
31346;BME280;21711;49.708;18.568;2022-10-16T03:37:05;97607.78;;;10.94;100.00
31346;BME280;21711;49.708;18.568;2022-10-16T03:39:33;97611.22;;;10.89;100.00
31346;BME280;21711;49.708;18.568;2022-10-16T03:42:00;97619.72;;;10.91;100.00
31346;BME280;21711;49.708;18.568;2022-10-16T03:44:27;97622.09;;;10.98;100.00
31346;BME280;21711;49.708;18.568;2022-10-16T03:46:54;97633.69;;;11.07;100.00
31346;BME280;21711;49.708;18.568;2022-10-16T03:49:21;97629.97;;;11.24;100.00
31346;BME280;21711;49.708;18.568;2022-10-16T03:51:49;97635.78;;;11.26;100.00
31346;BME280;21711;49.708;18.568;2022-10-16T03:54:16;97633.91;;;11.37;100.00
31346;BME280;21711;49.708;18.568;2022-10-16T03:56:43;97637.34;;;11.42;100.00
31346;BME280;21711;49.708;18.568;2022-10-16T03:59:11;97632.84;;;11.53;100.00
31346;BME280;21711;49.708;18.568;2022-10-16T04:01:38;97622.53;;;11.47;100.00
31346;BME280;21711;49.708;18.568;2022-10-16T04:04:05;97622.09;;;11.84;100.00
31346;BME280;21711;49.708;18.568;2022-10-16T04:06:32;97621.50;;;12.03;100.00
31346;BME280;21711;49.708;18.568;2022-10-16T04:09:00;97621.72;;;12.17;100.00
31346;BME280;21711;49.708;18.568;2022-10-16T04:11:27;97629.38;;;12.19;100.00
31346;BME280;21711;49.708;18.568;2022-10-16T04:13:55;97632.88;;;12.14;100.00
31346;BME280;21711;49.708;18.568;2022-10-16T04:16:22;97635.50;;;12.19;100.00
31346;BME280;21711;49.708;18.568;2022-10-16T04:18:50;97636.31;;;12.20;100.00
31346;BME280;21711;49.708;18.568;2022-10-16T04:21:17;97637.91;;;12.16;100.00
31346;BME280;21711;49.708;18.568;2022-10-16T04:23:44;97642.66;;;12.19;100.00
31346;BME280;21711;49.708;18.568;2022-10-16T04:26:11;97643.13;;;12.31;100.00
31346;BME280;21711;49.708;18.568;2022-10-16T04:28:39;97641.31;;;12.27;100.00
31346;BME280;21711;49.708;18.568;2022-10-16T04:31:06;97642.16;;;12.12;100.00
31346;BME280;21711;49.708;18.568;2022-10-16T04:33:34;97631.84;;;12.00;100.00
31346;BME280;21711;49.708;18.568;2022-10-16T04:36:03;97631.59;;;12.01;100.00
31346;BME280;21711;49.708;18.568;2022-10-16T04:38:30;97631.13;;;11.83;100.00
31346;BME280;21711;49.708;18.568;2022-10-16T04:40:58;97624.31;;;11.62;100.00
31346;BME280;21711;49.708;18.568;2022-10-16T04:43:26;97628.34;;;11.43;100.00
31346;BME280;21711;49.708;18.568;2022-10-16T04:45:55;97637.13;;;11.34;100.00
31346;BME280;21711;49.708;18.568;2022-10-16T04:48:24;97636.06;;;11.29;100.00
31346;BME280;21711;49.708;18.568;2022-10-16T04:50:53;97635.28;;;11.24;100.00
31346;BME280;21711;49.708;18.568;2022-10-16T04:53:21;97638.72;;;11.24;100.00
31346;BME280;21711;49.708;18.568;2022-10-16T04:55:49;97637.13;;;11.18;100.00
31346;BME280;21711;49.708;18.568;2022-10-16T04:58:17;97648.53;;;11.18;100.00
31346;BME280;21711;49.708;18.568;2022-10-16T05:00:45;97654.88;;;11.17;100.00
31346;BME280;21711;49.708;18.568;2022-10-16T05:03:13;97654.88;;;11.12;100.00
31346;BME280;21711;49.708;18.568;2022-10-16T05:05:45;97651.69;;;11.31;100.00
31346;BME280;21711;49.708;18.568;2022-10-16T05:08:14;97654.03;;;11.53;100.00
31346;BME280;21711;49.708;18.568;2022-10-16T05:10:43;97656.41;;;11.44;100.00
31346;BME280;21711;49.708;18.568;2022-10-16T05:13:11;97650.84;;;11.51;100.00
31346;BME280;21711;49.708;18.568;2022-10-16T05:15:46;97654.22;;;11.73;100.00
31346;BME280;21711;49.708;18.568;2022-10-16T05:18:15;97649.47;;;11.75;100.00
31346;BME280;21711;49.708;18.568;2022-10-16T05:20:42;97657.94;;;11.66;100.00
31346;BME280;21711;49.708;18.568;2022-10-16T05:23:10;97656.63;;;11.69;100.00
31346;BME280;21711;49.708;18.568;2022-10-16T05:25:39;97657.13;;;11.71;100.00
31346;BME280;21711;49.708;18.568;2022-10-16T05:28:06;97658.13;;;11.86;100.00
31346;BME280;21711;49.708;18.568;2022-10-16T05:30:34;97651.81;;;11.81;100.00
31346;BME280;21711;49.708;18.568;2022-10-16T05:33:01;97654.47;;;11.81;100.00
31346;BME280;21711;49.708;18.568;2022-10-16T05:35:28;97667.13;;;11.90;100.00
31346;BME280;21711;49.708;18.568;2022-10-16T05:37:56;97654.13;;;11.99;100.00
31346;BME280;21711;49.708;18.568;2022-10-16T05:40:23;97663.56;;;12.26;100.00
31346;BME280;21711;49.708;18.568;2022-10-16T05:42:55;97670.88;;;12.44;100.00
31346;BME280;21711;49.708;18.568;2022-10-16T05:45:22;97678.06;;;12.84;100.00
31346;BME280;21711;49.708;18.568;2022-10-16T05:47:50;97687.06;;;13.18;100.00
31346;BME280;21711;49.708;18.568;2022-10-16T05:50:18;97686.06;;;13.43;100.00
31346;BME280;21711;49.708;18.568;2022-10-16T05:52:46;97682.19;;;13.84;100.00
31346;BME280;21711;49.708;18.568;2022-10-16T05:55:13;97684.81;;;14.33;100.00
31346;BME280;21711;49.708;18.568;2022-10-16T05:57:40;97695.34;;;15.15;100.00
31346;BME280;21711;49.708;18.568;2022-10-16T06:00:09;97686.72;;;15.51;100.00
31346;BME280;21711;49.708;18.568;2022-10-16T06:02:39;97700.22;;;16.39;100.00
31346;BME280;21711;49.708;18.568;2022-10-16T06:05:07;97709.25;;;17.58;100.00
31346;BME280;21711;49.708;18.568;2022-10-16T06:07:35;97713.16;;;18.95;100.00
31346;BME280;21711;49.708;18.568;2022-10-16T06:10:04;97720.09;;;20.39;95.12
31346;BME280;21711;49.708;18.568;2022-10-16T06:12:31;97736.25;;;21.62;90.42
31346;BME280;21711;49.708;18.568;2022-10-16T06:14:59;97743.91;;;22.34;71.38
31346;BME280;21711;49.708;18.568;2022-10-16T06:17:26;97742.22;;;22.96;56.16
31346;BME280;21711;49.708;18.568;2022-10-16T06:19:54;97745.66;;;22.68;56.21
31346;BME280;21711;49.708;18.568;2022-10-16T06:22:21;97745.94;;;21.75;59.17
31346;BME280;21711;49.708;18.568;2022-10-16T06:24:49;97738.06;;;22.57;58.49
31346;BME280;21711;49.708;18.568;2022-10-16T06:27:16;97743.69;;;22.65;57.15
31346;BME280;21711;49.708;18.568;2022-10-16T06:29:44;97739.94;;;21.45;60.11
31346;BME280;21711;49.708;18.568;2022-10-16T06:32:12;97736.66;;;20.11;66.75
31346;BME280;21711;49.708;18.568;2022-10-16T06:34:39;97735.22;;;19.00;70.25
31346;BME280;21711;49.708;18.568;2022-10-16T06:37:10;97743.97;;;18.21;76.33
31346;BME280;21711;49.708;18.568;2022-10-16T06:39:37;97744.59;;;17.78;81.96
31346;BME280;21711;49.708;18.568;2022-10-16T06:42:04;97748.66;;;17.43;85.04
31346;BME280;21711;49.708;18.568;2022-10-16T06:44:35;97749.03;;;17.28;83.74
31346;BME280;21711;49.708;18.568;2022-10-16T06:47:02;97751.09;;;17.08;85.46
31346;BME280;21711;49.708;18.568;2022-10-16T06:49:30;97754.97;;;17.02;90.64
31346;BME280;21711;49.708;18.568;2022-10-16T06:51:57;97756.75;;;17.06;92.75
31346;BME280;21711;49.708;18.568;2022-10-16T06:54:25;97761.97;;;17.12;98.06
31346;BME280;21711;49.708;18.568;2022-10-16T06:56:53;97774.66;;;17.06;95.11
31346;BME280;21711;49.708;18.568;2022-10-16T06:59:23;97782.22;;;16.90;97.29
31346;BME280;21711;49.708;18.568;2022-10-16T07:01:50;97773.22;;;16.86;98.04
31346;BME280;21711;49.708;18.568;2022-10-16T07:04:18;97782.94;;;16.67;100.00
31346;BME280;21711;49.708;18.568;2022-10-16T07:06:45;97774.63;;;16.69;100.00
31346;BME280;21711;49.708;18.568;2022-10-16T07:09:12;97768.50;;;16.68;98.07
31346;BME280;21711;49.708;18.568;2022-10-16T07:11:43;97773.66;;;16.65;99.89
31346;BME280;21711;49.708;18.568;2022-10-16T07:14:17;97776.81;;;16.67;100.00
31346;BME280;21711;49.708;18.568;2022-10-16T07:16:45;97779.75;;;16.79;95.75
31346;BME280;21711;49.708;18.568;2022-10-16T07:19:13;97788.41;;;16.99;96.31
31346;BME280;21711;49.708;18.568;2022-10-16T07:21:41;97775.19;;;17.17;94.10
31346;BME280;21711;49.708;18.568;2022-10-16T07:24:15;97784.53;;;17.51;92.11
31346;BME280;21711;49.708;18.568;2022-10-16T07:26:44;97792.41;;;17.79;91.70
31346;BME280;21711;49.708;18.568;2022-10-16T07:29:16;97786.69;;;18.04;88.52
31346;BME280;21711;49.708;18.568;2022-10-16T07:31:45;97791.25;;;18.03;85.19
31346;BME280;21711;49.708;18.568;2022-10-16T07:34:13;97792.25;;;18.07;78.33
31346;BME280;21711;49.708;18.568;2022-10-16T07:36:41;97793.44;;;18.01;81.30
31346;BME280;21711;49.708;18.568;2022-10-16T07:39:14;97807.50;;;18.07;81.19
31346;BME280;21711;49.708;18.568;2022-10-16T07:41:41;97804.06;;;17.83;82.02
31346;BME280;21711;49.708;18.568;2022-10-16T07:44:08;97805.56;;;17.67;83.34
31346;BME280;21711;49.708;18.568;2022-10-16T07:46:36;97806.78;;;17.60;87.48
31346;BME280;21711;49.708;18.568;2022-10-16T07:49:03;97805.06;;;17.65;89.54
31346;BME280;21711;49.708;18.568;2022-10-16T07:51:31;97811.69;;;17.67;87.11
31346;BME280;21711;49.708;18.568;2022-10-16T07:53:58;97815.19;;;17.77;91.54
31346;BME280;21711;49.708;18.568;2022-10-16T07:56:25;97805.31;;;17.77;84.74
31346;BME280;21711;49.708;18.568;2022-10-16T07:58:53;97804.00;;;17.97;88.94
31346;BME280;21711;49.708;18.568;2022-10-16T08:01:20;97811.78;;;18.17;80.66
31346;BME280;21711;49.708;18.568;2022-10-16T08:03:50;97813.00;;;18.51;78.86
31346;BME280;21711;49.708;18.568;2022-10-16T08:06:20;97820.97;;;18.83;79.78
31346;BME280;21711;49.708;18.568;2022-10-16T08:08:54;97816.09;;;19.11;82.32
31346;BME280;21711;49.708;18.568;2022-10-16T08:11:22;97821.75;;;20.49;75.28
31346;BME280;21711;49.708;18.568;2022-10-16T08:13:50;97830.97;;;21.89;68.38
31346;BME280;21711;49.708;18.568;2022-10-16T08:16:17;97847.97;;;23.59;63.58
31346;BME280;21711;49.708;18.568;2022-10-16T08:18:45;97846.44;;;24.54;55.63
31346;BME280;21711;49.708;18.568;2022-10-16T08:21:16;97837.84;;;24.85;55.05
31346;BME280;21711;49.708;18.568;2022-10-16T08:23:48;97843.09;;;24.77;52.24
31346;BME280;21711;49.708;18.568;2022-10-16T08:26:23;97845.97;;;26.30;47.38
31346;BME280;21711;49.708;18.568;2022-10-16T08:28:51;97853.75;;;27.16;44.77
31346;BME280;21711;49.708;18.568;2022-10-16T08:31:19;97851.66;;;27.75;42.65
31346;BME280;21711;49.708;18.568;2022-10-16T08:33:47;97847.47;;;26.82;42.66
31346;BME280;21711;49.708;18.568;2022-10-16T08:36:16;97843.22;;;26.26;45.11
31346;BME280;21711;49.708;18.568;2022-10-16T08:38:43;97841.88;;;26.71;47.39
31346;BME280;21711;49.708;18.568;2022-10-16T08:47:26;97839.66;;;25.16;48.69
31346;BME280;21711;49.708;18.568;2022-10-16T08:50:17;97841.00;;;24.71;53.38
31346;BME280;21711;49.708;18.568;2022-10-16T08:52:45;97836.66;;;24.66;53.54
31346;BME280;21711;49.708;18.568;2022-10-16T08:55:30;97840.25;;;24.54;53.10
31346;BME280;21711;49.708;18.568;2022-10-16T08:58:00;97834.41;;;24.03;56.04
31346;BME280;21711;49.708;18.568;2022-10-16T09:00:28;97836.44;;;23.90;57.15
31346;BME280;21711;49.708;18.568;2022-10-16T09:25:32;97863.28;;;28.66;40.42
31346;BME280;21711;49.708;18.568;2022-10-16T09:28:00;97869.97;;;28.75;40.65
31346;BME280;21711;49.708;18.568;2022-10-16T09:30:29;97874.81;;;27.99;41.07
31346;BME280;21711;49.708;18.568;2022-10-16T09:32:58;97878.06;;;27.74;42.21
31346;BME280;21711;49.708;18.568;2022-10-16T09:38:02;97878.81;;;26.79;45.02
31346;BME280;21711;49.708;18.568;2022-10-16T09:40:38;97874.97;;;26.53;48.73
31346;BME280;21711;49.708;18.568;2022-10-16T09:43:24;97874.41;;;26.40;48.24
31346;BME280;21711;49.708;18.568;2022-10-16T09:46:00;97869.78;;;26.21;48.46
31346;BME280;21711;49.708;18.568;2022-10-16T09:48:43;97865.56;;;24.98;49.05
31346;BME280;21711;49.708;18.568;2022-10-16T09:51:34;97868.00;;;24.19;51.83
31346;BME280;21711;49.708;18.568;2022-10-16T09:56:37;97870.81;;;23.49;56.44
31346;BME280;21711;49.708;18.568;2022-10-16T09:59:13;97870.06;;;22.95;57.17
31346;BME280;21711;49.708;18.568;2022-10-16T10:04:09;97875.59;;;23.27;55.85
31346;BME280;21711;49.708;18.568;2022-10-16T10:07:01;97878.41;;;23.43;55.98
31346;BME280;21711;49.708;18.568;2022-10-16T10:09:39;97880.75;;;22.79;56.13
31346;BME280;21711;49.708;18.568;2022-10-16T10:12:37;97887.84;;;22.71;55.83
31346;BME280;21711;49.708;18.568;2022-10-16T10:15:11;97889.03;;;23.11;57.02
31346;BME280;21711;49.708;18.568;2022-10-16T10:20:35;97883.31;;;22.88;58.05
31346;BME280;21711;49.708;18.568;2022-10-16T10:23:22;97885.38;;;22.66;58.54
31346;BME280;21711;49.708;18.568;2022-10-16T10:26:05;97886.72;;;22.59;59.48
31346;BME280;21711;49.708;18.568;2022-10-16T10:31:41;97886.84;;;21.71;62.68
31346;BME280;21711;49.708;18.568;2022-10-16T10:34:45;97885.19;;;21.45;64.09
31346;BME280;21711;49.708;18.568;2022-10-16T10:46:27;97883.78;;;21.38;62.46
31346;BME280;21711;49.708;18.568;2022-10-16T10:58:00;97881.19;;;24.36;51.76
31346;BME280;21711;49.708;18.568;2022-10-16T11:01:06;97887.88;;;25.30;52.49
31346;BME280;21711;49.708;18.568;2022-10-16T11:04:23;97888.78;;;25.78;48.59
31346;BME280;21711;49.708;18.568;2022-10-16T11:07:09;97890.63;;;25.14;49.15
31346;BME280;21711;49.708;18.568;2022-10-16T11:09:47;97879.22;;;24.69;49.72
31346;BME280;21711;49.708;18.568;2022-10-16T11:15:07;97895.06;;;25.42;51.54
31346;BME280;21711;49.708;18.568;2022-10-16T11:18:08;97891.78;;;25.72;50.68
31346;BME280;21711;49.708;18.568;2022-10-16T11:23:30;97896.59;;;24.52;53.67
31346;BME280;21711;49.708;18.568;2022-10-16T11:26:08;97898.75;;;25.14;53.75
31346;BME280;21711;49.708;18.568;2022-10-16T11:28:46;97894.84;;;25.71;50.83
31346;BME280;21711;49.708;18.568;2022-10-16T11:31:40;97900.91;;;25.44;51.44
31346;BME280;21711;49.708;18.568;2022-10-16T11:34:36;97886.97;;;24.71;52.42
31346;BME280;21711;49.708;18.568;2022-10-16T11:37:19;97885.09;;;24.23;55.55
31346;BME280;21711;49.708;18.568;2022-10-16T11:39:49;97894.44;;;23.97;55.27
31346;BME280;21711;49.708;18.568;2022-10-16T11:42:27;97892.66;;;23.44;57.16
31346;BME280;21711;49.708;18.568;2022-10-16T11:45:02;97889.59;;;23.04;56.42
31346;BME280;21711;49.708;18.568;2022-10-16T11:47:50;97886.94;;;23.33;59.35
31346;BME280;21711;49.708;18.568;2022-10-16T11:53:16;97887.47;;;23.96;57.95
31346;BME280;21711;49.708;18.568;2022-10-16T11:55:49;97889.03;;;23.97;57.62
31346;BME280;21711;49.708;18.568;2022-10-16T12:05:24;97882.97;;;23.71;53.79
31346;BME280;21711;49.708;18.568;2022-10-16T12:08:10;97885.16;;;23.66;57.27
31346;BME280;21711;49.708;18.568;2022-10-16T12:10:42;97889.66;;;24.06;57.45
31346;BME280;21711;49.708;18.568;2022-10-16T12:13:39;97893.28;;;24.42;58.17
31346;BME280;21711;49.708;18.568;2022-10-16T12:16:27;97890.56;;;24.26;56.88
31346;BME280;21711;49.708;18.568;2022-10-16T12:19:24;97897.16;;;24.93;54.46
31346;BME280;21711;49.708;18.568;2022-10-16T12:21:57;97901.34;;;24.91;51.33
31346;BME280;21711;49.708;18.568;2022-10-16T12:24:42;97899.91;;;25.72;51.26
31346;BME280;21711;49.708;18.568;2022-10-16T12:27:32;97900.25;;;25.51;51.60
31346;BME280;21711;49.708;18.568;2022-10-16T12:30:03;97898.41;;;24.48;52.31
31346;BME280;21711;49.708;18.568;2022-10-16T12:32:38;97900.84;;;23.76;56.49
31346;BME280;21711;49.708;18.568;2022-10-16T12:35:30;97903.31;;;22.99;58.79
31346;BME280;21711;49.708;18.568;2022-10-16T12:38:26;97904.69;;;22.68;61.83
31346;BME280;21711;49.708;18.568;2022-10-16T12:41:07;97902.16;;;22.50;67.13
31346;BME280;21711;49.708;18.568;2022-10-16T12:43:47;97903.81;;;22.17;67.44
31346;BME280;21711;49.708;18.568;2022-10-16T12:48:44;97901.19;;;21.62;66.80
31346;BME280;21711;49.708;18.568;2022-10-16T12:51:37;97896.50;;;21.72;67.13
31346;BME280;21711;49.708;18.568;2022-10-16T13:25:47;97922.06;;;20.06;75.51
31346;BME280;21711;49.708;18.568;2022-10-16T13:28:22;97918.13;;;20.03;76.96
31346;BME280;21711;49.708;18.568;2022-10-16T13:30:58;97913.38;;;20.09;76.95
31346;BME280;21711;49.708;18.568;2022-10-16T13:33:38;97920.56;;;20.44;75.37
31346;BME280;21711;49.708;18.568;2022-10-16T13:36:21;97920.34;;;20.88;73.36
31346;BME280;21711;49.708;18.568;2022-10-16T13:41:37;97923.09;;;21.73;64.82
31346;BME280;21711;49.708;18.568;2022-10-16T13:44:08;97924.78;;;22.12;64.64
31346;BME280;21711;49.708;18.568;2022-10-16T13:46:39;97927.53;;;22.24;65.41
31346;BME280;21711;49.708;18.568;2022-10-16T13:49:17;97913.16;;;22.20;64.89
31346;BME280;21711;49.708;18.568;2022-10-16T13:51:58;97915.19;;;21.89;60.00
31346;BME280;21711;49.708;18.568;2022-10-16T13:54:27;97913.38;;;21.60;66.66
31346;BME280;21711;49.708;18.568;2022-10-16T13:57:05;97920.94;;;21.45;66.45
31346;BME280;21711;49.708;18.568;2022-10-16T13:59:53;97910.25;;;21.15;66.00
31346;BME280;21711;49.708;18.568;2022-10-16T14:02:38;97919.25;;;20.80;65.50
31346;BME280;21711;49.708;18.568;2022-10-16T14:05:09;97913.50;;;20.60;66.33
31346;BME280;21711;49.708;18.568;2022-10-16T14:07:38;97924.56;;;20.59;67.57
31346;BME280;21711;49.708;18.568;2022-10-16T14:10:28;97933.44;;;20.50;66.27
31346;BME280;21711;49.708;18.568;2022-10-16T14:13:05;97926.38;;;20.46;69.25
31346;BME280;21711;49.708;18.568;2022-10-16T14:15:35;97925.13;;;20.43;72.51
31346;BME280;21711;49.708;18.568;2022-10-16T14:18:04;97924.22;;;20.30;68.73
31346;BME280;21711;49.708;18.568;2022-10-16T14:20:33;97930.22;;;20.27;73.29
31346;BME280;21711;49.708;18.568;2022-10-16T14:25:49;97930.25;;;20.09;77.14
31346;BME280;21711;49.708;18.568;2022-10-16T14:28:23;97936.09;;;19.94;75.35
31346;BME280;21711;49.708;18.568;2022-10-16T14:30:56;97935.16;;;19.72;77.89
31346;BME280;21711;49.708;18.568;2022-10-16T14:38:38;97949.16;;;19.07;78.36
31346;BME280;21711;49.708;18.568;2022-10-16T14:41:06;97956.81;;;18.91;80.68
31346;BME280;21711;49.708;18.568;2022-10-16T14:43:40;97952.63;;;18.67;84.35
31346;BME280;21711;49.708;18.568;2022-10-16T14:46:20;97953.19;;;18.46;81.83
31346;BME280;21711;49.708;18.568;2022-10-16T14:48:50;97952.66;;;18.35;81.96
31346;BME280;21711;49.708;18.568;2022-10-16T14:51:19;97955.47;;;18.07;89.04
31346;BME280;21711;49.708;18.568;2022-10-16T14:53:47;97956.06;;;17.81;90.17
31346;BME280;21711;49.708;18.568;2022-10-16T14:56:23;97954.69;;;17.70;90.66
31346;BME280;21711;49.708;18.568;2022-10-16T14:58:51;97951.28;;;17.55;90.18
31346;BME280;21711;49.708;18.568;2022-10-16T15:01:19;97957.53;;;17.51;88.62
31346;BME280;21711;49.708;18.568;2022-10-16T15:03:47;97967.81;;;17.57;91.35
31346;BME280;21711;49.708;18.568;2022-10-16T15:06:16;97962.97;;;17.59;90.00
31346;BME280;21711;49.708;18.568;2022-10-16T15:08:43;97961.44;;;17.44;89.93
31346;BME280;21711;49.708;18.568;2022-10-16T15:11:14;97968.16;;;17.42;92.25
31346;BME280;21711;49.708;18.568;2022-10-16T15:13:42;97962.53;;;17.29;93.97
31346;BME280;21711;49.708;18.568;2022-10-16T15:16:14;97964.44;;;17.15;95.17
31346;BME280;21711;49.708;18.568;2022-10-16T15:18:43;97955.44;;;17.11;90.67
31346;BME280;21711;49.708;18.568;2022-10-16T15:21:25;97953.72;;;17.01;93.09
31346;BME280;21711;49.708;18.568;2022-10-16T15:23:54;97956.91;;;17.03;90.50
31346;BME280;21711;49.708;18.568;2022-10-16T15:26:25;97953.06;;;16.95;92.99
31346;BME280;21711;49.708;18.568;2022-10-16T15:28:53;97954.84;;;16.86;93.96
31346;BME280;21711;49.708;18.568;2022-10-16T15:31:21;97950.25;;;16.58;96.33